Vremea acum in Sibiu - Romania

Vrei sa afli care e starea vremii acum in Sibiu - Romania? Dorim sa iti furnizam starea vremii pentru Sibiu - Romania. Starea vremii Sibiu - Romania pentru astazi.

Vremea acum in Sibiu

Temperatura: 21 °C

Este: Senin
Se simte ca: 21 °C
Innorat: 0 %
Precipitatii: %
Presiune atmosferica: 1013 hPa
Umiditate: 46%
Vizibilitate: 10 km
Vantul bate din E cu 6.1 km/h

Evolutia vremii in Sibiu pe ore

Ora: 17:00
Temperatura: °C
Sansa de precipitatii: %
Ora Descriere Temp Se simte Precipitatii Umiditate Vant
00:00Senin8.3°7.5°0%72%SSW 6.1 KM/H
01:00Senin7.2°0%72%SSW 5.8 KM/H
02:00Senin7.8°6.8°0%71%SSW 6.5 KM/H
03:00Senin7.6°0%70%SSW 5 KM/H
04:00Senin7.6°0%68%SSW 5 KM/H
05:00Senin8.2°0%66%SW 4.3 KM/H
06:00Partial innorat7.6°0%63%S 4.7 KM/H
07:00Partial innorat9.4°9.4°0%59%S 4 KM/H
08:00Senin12.5°12.5°0%49%ESE 2.2 KM/H
09:00Senin15.1°15.1°0%43%ESE 2.9 KM/H
10:00Senin17.6°17.6°0%37%E 4.7 KM/H
11:00Senin20.2°20.2°0%34%NNE 5 KM/H
12:00Partial innorat22.3°23.6°0%33%N 4.7 KM/H
13:00Partial innorat23.6°24.2°0%33%NNW 4 KM/H
14:00Partial innorat24.5°24.7°0%34%NNW 4.3 KM/H
15:00Partial innorat24°24.6°0%37%NW 4.7 KM/H
16:00Senin21.7°21.7°0%46%NW 1.4 KM/H
17:00Partial innorat22.7°24.5°0%45%N 0.4 KM/H
18:00Senin20.1°20.1°0%55%S 2.5 KM/H
19:00Senin18.1°18.1°0%58%SSW 5.4 KM/H
20:00Senin17.7°17.7°0%59%SW 4.3 KM/H
21:00Partial innorat17°17°0%62%SSW 6.5 KM/H
22:00Partial innorat16.2°16.2°0%64%S 7.9 KM/H
23:00Acoperit de nori15.9°15.9°0%61%S 7.9 KM/H




tutorials